createdAt,value
2019-03-06T00:03:17.954Z,4.60
2019-03-06T00:08:10.434Z,4.50
2019-03-06T00:13:03.174Z,4.40
2019-03-06T00:17:55.847Z,4.40
2019-03-06T00:22:48.156Z,4.40
2019-03-06T00:27:40.572Z,4.40
2019-03-06T00:32:33.177Z,4.50
2019-03-06T00:37:25.976Z,4.60
2019-03-06T00:42:18.633Z,4.70
2019-03-06T00:47:11.304Z,4.70
2019-03-06T00:52:04.166Z,4.70
2019-03-06T00:56:56.473Z,4.70
2019-03-06T01:01:49.195Z,4.60
2019-03-06T01:06:41.882Z,4.60
2019-03-06T01:11:34.292Z,4.60
2019-03-06T01:16:26.597Z,4.60
2019-03-06T01:21:19.011Z,4.50
2019-03-06T01:26:12.095Z,4.40
2019-03-06T01:31:05.065Z,4.40
2019-03-06T01:36:11.113Z,4.30
2019-03-06T01:41:08.099Z,4.10
2019-03-06T01:46:00.833Z,4.10
2019-03-06T01:50:53.623Z,4.00
2019-03-06T01:55:46.389Z,3.90
2019-03-06T02:00:39.376Z,3.80
2019-03-06T02:05:32.405Z,3.80
2019-03-06T02:10:25.221Z,3.70
2019-03-06T02:15:18.737Z,3.60
2019-03-06T02:20:14.378Z,3.60
2019-03-06T02:25:06.990Z,3.40
2019-03-06T02:29:59.557Z,3.30
2019-03-06T02:34:52.155Z,3.20
2019-03-06T02:39:44.431Z,3.10
2019-03-06T02:44:36.826Z,3.00
2019-03-06T02:49:29.518Z,2.90
2019-03-06T02:54:21.760Z,2.80
2019-03-06T02:59:15.868Z,2.80
2019-03-06T03:04:12.849Z,2.70
2019-03-06T03:09:08.546Z,2.70
2019-03-06T03:14:01.258Z,2.60
2019-03-06T03:18:53.478Z,2.50
2019-03-06T03:23:45.770Z,2.50
2019-03-06T03:28:38.302Z,2.50
2019-03-06T03:33:31.369Z,2.50
2019-03-06T03:38:23.653Z,2.40
2019-03-06T03:43:16.364Z,2.30
2019-03-06T03:48:09.186Z,2.30
2019-03-06T03:53:01.532Z,2.30
2019-03-06T03:57:53.942Z,2.20
2019-03-06T04:02:46.524Z,2.10
2019-03-06T04:07:39.173Z,2.10
2019-03-06T04:12:34.151Z,2.10
2019-03-06T04:17:25.794Z,2.20
2019-03-06T04:22:18.577Z,2.10
2019-03-06T04:27:11.125Z,2.10
2019-03-06T04:32:03.451Z,2.00
2019-03-06T04:36:55.728Z,1.90
2019-03-06T04:41:48.384Z,1.90
2019-03-06T04:46:41.043Z,1.80
2019-03-06T04:51:52.663Z,1.70
2019-03-06T04:56:45.415Z,1.70
2019-03-06T05:01:37.901Z,1.70
2019-03-06T05:06:30.873Z,1.70
2019-03-06T05:11:23.279Z,1.70
2019-03-06T05:16:15.733Z,1.70
2019-03-06T05:21:08.333Z,1.70
2019-03-06T05:26:00.949Z,1.80
2019-03-06T05:30:54.177Z,1.80
2019-03-06T05:35:52.756Z,1.80
2019-03-06T05:40:45.135Z,1.80
2019-03-06T05:45:37.612Z,1.80
2019-03-06T05:50:30.320Z,1.70
2019-03-06T05:55:23.001Z,1.60
2019-03-06T06:00:18.829Z,1.60
2019-03-06T06:05:13.235Z,1.50
2019-03-06T06:10:08.012Z,1.50
2019-03-06T06:15:00.813Z,1.40
2019-03-06T06:19:53.080Z,1.50
2019-03-06T06:24:45.370Z,1.50
2019-03-06T06:29:37.953Z,1.70
2019-03-06T06:34:30.831Z,1.90
2019-03-06T06:39:23.217Z,2.10
2019-03-06T06:44:15.253Z,2.20
2019-03-06T06:49:08.209Z,2.30
2019-03-06T06:54:29.221Z,2.40
2019-03-06T06:59:36.650Z,2.70
2019-03-06T07:04:45.652Z,3.00
2019-03-06T07:09:55.749Z,3.10
2019-03-06T07:14:56.001Z,3.20
2019-03-06T07:19:50.173Z,3.50
2019-03-06T07:24:49.650Z,4.10
2019-03-06T07:29:43.698Z,4.90
2019-03-06T07:34:49.676Z,5.70
2019-03-06T07:39:43.626Z,5.60
2019-03-06T07:44:40.397Z,6.10
2019-03-06T07:49:44.782Z,6.80
2019-03-06T07:54:35.750Z,6.70
2019-03-06T07:59:28.418Z,7.70
2019-03-06T08:04:21.694Z,9.50
2019-03-06T08:09:16.899Z,11.00
2019-03-06T08:14:27.019Z,11.10
2019-03-06T08:19:27.072Z,11.30
2019-03-06T08:24:26.649Z,11.00
2019-03-06T08:29:19.025Z,11.10
2019-03-06T08:34:11.276Z,11.40
2019-03-06T08:39:05.036Z,11.30
2019-03-06T08:43:58.012Z,11.50
2019-03-06T08:48:58.288Z,13.80
2019-03-06T08:53:58.656Z,16.50
2019-03-06T08:58:58.734Z,19.00
2019-03-06T09:04:02.172Z,20.10
2019-03-06T09:09:01.414Z,19.30
2019-03-06T09:14:00.787Z,17.10
2019-03-06T09:19:06.732Z,15.00
2019-03-06T09:24:15.454Z,13.60
2019-03-06T09:29:09.639Z,12.90
2019-03-06T09:34:16.077Z,12.50
2019-03-06T09:39:15.825Z,12.70
2019-03-06T09:44:19.141Z,13.70
2019-03-06T09:49:24.873Z,14.50
2019-03-06T09:54:21.381Z,15.00
2019-03-06T09:59:15.566Z,14.50
2019-03-06T10:04:18.402Z,13.90
2019-03-06T10:09:20.745Z,13.60
2019-03-06T10:14:23.631Z,13.50
2019-03-06T10:19:17.784Z,13.30
2019-03-06T10:24:10.355Z,13.00
2019-03-06T10:29:02.749Z,12.80
2019-03-06T10:33:55.470Z,12.70
2019-03-06T10:38:48.273Z,12.70
2019-03-06T10:43:48.884Z,12.60
2019-03-06T10:48:35.026Z,12.50
2019-03-06T10:53:27.693Z,12.40
2019-03-06T10:58:20.112Z,12.50
2019-03-06T11:03:12.737Z,12.90
2019-03-06T11:08:05.960Z,14.20
2019-03-06T11:12:58.457Z,15.40
2019-03-06T11:17:51.190Z,18.40
2019-03-06T11:22:43.881Z,21.50
2019-03-06T11:27:36.773Z,21.20
2019-03-06T11:32:29.277Z,20.70
2019-03-06T11:37:22.373Z,20.30
2019-03-06T11:42:14.883Z,20.90
2019-03-06T11:47:07.369Z,22.10
2019-03-06T11:51:59.821Z,21.30
2019-03-06T11:56:52.555Z,20.30
2019-03-06T12:01:48.279Z,20.40
2019-03-06T12:06:39.584Z,21.40
2019-03-06T12:11:32.345Z,22.60
2019-03-06T12:16:24.843Z,23.20
2019-03-06T12:21:17.599Z,23.50
2019-03-06T12:26:10.082Z,23.40
2019-03-06T12:31:03.876Z,22.30
2019-03-06T12:35:56.564Z,21.40
2019-03-06T12:40:49.289Z,20.80
2019-03-06T12:45:44.861Z,19.60
2019-03-06T12:50:39.077Z,18.90
2019-03-06T12:55:31.476Z,18.40
2019-03-06T13:00:25.927Z,18.20
2019-03-06T13:05:19.611Z,18.00
2019-03-06T13:10:14.188Z,17.80
2019-03-06T13:15:09.868Z,17.80
2019-03-06T13:20:02.738Z,17.80
2019-03-06T13:24:57.949Z,17.40
2019-03-06T13:29:50.694Z,16.80
2019-03-06T13:34:50.350Z,16.40
2019-03-06T13:39:37.939Z,16.10
2019-03-06T13:44:30.489Z,15.80
2019-03-06T13:49:22.926Z,15.60
2019-03-06T13:54:15.797Z,15.50
2019-03-06T13:59:08.605Z,15.50
2019-03-06T14:04:01.409Z,15.40
2019-03-06T14:08:54.119Z,15.40
2019-03-06T14:13:46.637Z,15.30
2019-03-06T14:18:39.203Z,15.00
2019-03-06T14:23:35.036Z,14.80
2019-03-06T14:28:26.278Z,14.60
2019-03-06T14:33:19.121Z,14.40
2019-03-06T14:38:11.781Z,14.30
2019-03-06T14:43:09.082Z,14.10
2019-03-06T14:48:01.847Z,13.90
2019-03-06T14:52:54.289Z,13.90
2019-03-06T14:57:46.799Z,13.90
2019-03-06T15:02:39.437Z,13.90
2019-03-06T15:07:32.242Z,13.80
2019-03-06T15:12:24.527Z,13.70
2019-03-06T15:17:17.010Z,13.60
2019-03-06T15:22:09.757Z,13.40
2019-03-06T15:27:02.376Z,13.30
2019-03-06T15:31:55.013Z,13.10
2019-03-06T15:36:47.531Z,12.90
2019-03-06T15:41:40.109Z,12.80
2019-03-06T15:46:32.944Z,12.70
2019-03-06T15:51:25.962Z,12.50
2019-03-06T15:56:18.753Z,12.30
2019-03-06T16:01:11.142Z,12.20
2019-03-06T16:06:04.313Z,12.00
2019-03-06T16:10:56.893Z,11.80
2019-03-06T16:15:49.628Z,11.60
2019-03-06T16:20:42.473Z,11.50
2019-03-06T16:25:37.295Z,11.40
2019-03-06T16:30:30.514Z,11.30
2019-03-06T16:35:23.041Z,11.20
2019-03-06T16:40:20.075Z,11.10
2019-03-06T16:45:12.787Z,10.90
2019-03-06T16:50:14.377Z,10.80
2019-03-06T16:55:02.609Z,10.60
2019-03-06T16:59:55.301Z,10.50
2019-03-06T17:04:47.794Z,10.40
2019-03-06T17:09:40.489Z,10.30
2019-03-06T17:14:32.929Z,10.30
2019-03-06T17:19:25.649Z,10.20
2019-03-06T17:24:18.246Z,10.20
2019-03-06T17:29:12.833Z,10.10
2019-03-06T17:34:05.390Z,10.10
2019-03-06T17:38:58.263Z,10.00
2019-03-06T17:43:51.037Z,10.00
2019-03-06T17:48:43.889Z,9.90
2019-03-06T17:53:36.449Z,9.90
2019-03-06T17:58:28.778Z,9.90
2019-03-06T18:03:23.201Z,9.90
2019-03-06T18:08:15.833Z,9.80
2019-03-06T18:13:08.224Z,9.80
2019-03-06T18:18:00.562Z,9.80
2019-03-06T18:22:55.058Z,9.90
2019-03-06T18:27:47.619Z,9.90
2019-03-06T18:32:40.305Z,9.80
2019-03-06T18:37:32.846Z,9.80
2019-03-06T18:42:25.473Z,9.80
2019-03-06T18:47:18.178Z,9.70
2019-03-06T18:52:10.783Z,9.70
2019-03-06T18:57:03.187Z,9.70
2019-03-06T19:01:55.663Z,9.70
2019-03-06T19:06:48.429Z,9.70
2019-03-06T19:11:40.755Z,9.70
2019-03-06T19:16:33.097Z,9.70
2019-03-06T19:21:25.715Z,9.70
2019-03-06T19:26:18.168Z,9.70
2019-03-06T19:31:10.709Z,9.70
2019-03-06T19:36:03.193Z,9.60
2019-03-06T19:40:55.893Z,9.70
2019-03-06T19:45:48.473Z,9.80
2019-03-06T19:50:40.646Z,9.90
2019-03-06T19:55:33.094Z,10.00
2019-03-06T20:00:29.302Z,10.00
2019-03-06T20:05:22.015Z,10.10
2019-03-06T20:10:14.917Z,10.10
2019-03-06T20:15:10.007Z,10.10
2019-03-06T20:20:02.689Z,10.10
2019-03-06T20:24:55.369Z,10.20
2019-03-06T20:29:47.698Z,10.20
2019-03-06T20:34:40.268Z,10.10
2019-03-06T20:39:32.854Z,10.10
2019-03-06T20:44:25.213Z,10.10
2019-03-06T20:49:17.890Z,10.10
2019-03-06T20:54:10.753Z,10.10
2019-03-06T20:59:03.540Z,10.10
2019-03-06T21:03:56.047Z,10.10
2019-03-06T21:08:48.731Z,10.10
2019-03-06T21:13:41.100Z,10.10
2019-03-06T21:18:33.729Z,10.00
2019-03-06T21:23:26.004Z,10.00
2019-03-06T21:28:18.734Z,10.00
2019-03-06T21:33:11.467Z,9.90
2019-03-06T21:38:03.800Z,9.90
2019-03-06T21:42:56.253Z,9.80
2019-03-06T21:47:48.972Z,9.80
2019-03-06T21:52:41.529Z,9.80
2019-03-06T21:57:34.504Z,9.80
2019-03-06T22:02:28.338Z,9.80
2019-03-06T22:07:20.943Z,9.80
2019-03-06T22:12:13.658Z,9.80
2019-03-06T22:17:06.060Z,9.80
2019-03-06T22:21:58.649Z,9.70
2019-03-06T22:26:51.129Z,9.70
2019-03-06T22:31:43.728Z,9.60
2019-03-06T22:36:36.385Z,9.60
2019-03-06T22:41:29.308Z,9.50
2019-03-06T22:46:21.757Z,9.50
2019-03-06T22:51:13.964Z,9.50
2019-03-06T22:56:06.375Z,9.50
2019-03-06T23:01:01.987Z,9.40
2019-03-06T23:05:54.529Z,9.40
2019-03-06T23:10:46.901Z,9.30
2019-03-06T23:15:39.207Z,9.30
2019-03-06T23:20:31.710Z,9.30
2019-03-06T23:25:24.545Z,9.30
2019-03-06T23:30:17.280Z,9.30
2019-03-06T23:35:10.320Z,9.30
2019-03-06T23:40:03.065Z,9.30
2019-03-06T23:44:55.905Z,9.20
2019-03-06T23:49:48.531Z,9.20
2019-03-06T23:54:41.569Z,9.20
2019-03-06T23:59:34.449Z,9.20
